Time,TemperatureF,DewpointF,PressureIn,WindDirection,WindDirectionDegrees,WindSpeedMPH,WindSpeedGustMPH,Humidity,HourlyPrecipIn,Conditions,Clouds,dailyrainin,SoftwareType,DateUTC
2013-04-15 00:02:00,20.0,7.0,-100.00,WNW,282,7.0,11.0,57,0.00,,,-99.99,,2013-04-15 06:02:00,
2013-04-15 00:12:00,20.0,6.0,-100.00,WNW,282,7.0,12.0,54,0.00,,,-99.99,,2013-04-15 06:12:00,
2013-04-15 00:22:00,20.0,7.0,-100.00,WNW,282,9.0,14.0,56,0.00,,,-99.99,,2013-04-15 06:22:00,
2013-04-15 00:33:00,20.0,7.0,-100.00,WNW,282,12.0,19.0,57,0.00,,,-99.99,,2013-04-15 06:33:00,
2013-04-15 00:42:00,20.0,8.0,-100.00,WNW,282,12.0,18.0,58,0.00,,,-99.99,,2013-04-15 06:42:00,
2013-04-15 00:52:00,19.0,9.0,-100.00,WNW,282,10.0,15.0,62,0.00,,,-99.99,,2013-04-15 06:52:00,
2013-04-15 01:02:00,19.0,9.0,-100.00,WNW,282,10.0,16.0,63,0.00,,,-99.99,,2013-04-15 07:02:00,
2013-04-15 01:52:00,17.0,13.0,-100.00,WNW,282,15.0,20.0,85,0.01,,,-99.99,,2013-04-15 07:52:00,
2013-04-15 02:02:00,17.0,14.0,-100.00,WNW,282,15.0,20.0,87,0.01,,,-99.99,,2013-04-15 08:02:00,
2013-04-15 02:13:00,17.0,14.0,-100.00,WNW,282,13.0,20.0,88,0.00,,,-99.99,,2013-04-15 08:13:00,
2013-04-15 02:22:00,17.0,15.0,-100.00,WNW,282,11.0,14.0,92,0.01,,,-99.99,,2013-04-15 08:22:00,
2013-04-15 02:33:00,17.0,15.0,-100.00,WNW,282,13.0,17.0,93,0.03,,,-99.99,,2013-04-15 08:33:00,
2013-04-15 02:42:00,17.0,15.0,-100.00,WNW,282,14.0,17.0,93,0.04,,,-99.99,,2013-04-15 08:42:00,
2013-04-15 02:52:00,17.0,15.0,-100.00,WNW,282,14.0,17.0,95,0.10,,,-99.99,,2013-04-15 08:52:00,
2013-04-15 03:02:00,17.0,15.0,-100.00,West,281,12.0,17.0,95,0.20,,,-99.99,,2013-04-15 09:02:00,
2013-04-15 03:12:00,17.0,15.0,-100.00,West,275,9.0,14.0,95,0.13,,,-99.99,,2013-04-15 09:12:00,
2013-04-15 03:22:00,16.0,15.0,-100.00,WNW,282,4.0,6.0,95,0.07,,,-99.99,,2013-04-15 09:22:00,
2013-04-15 03:32:00,16.0,15.0,-100.00,WNW,292,2.0,4.0,95,0.04,,,-99.99,,2013-04-15 09:32:00,
2013-04-15 03:42:00,17.0,15.0,-100.00,NW,325,3.0,6.0,95,0.04,,,-99.99,,2013-04-15 09:42:00,
2013-04-15 03:53:00,16.0,15.0,-100.00,NNE,25,2.0,4.0,95,0.07,,,-99.99,,2013-04-15 09:53:00,
2013-04-15 04:02:00,17.0,15.0,-100.00,NE,47,1.0,2.0,95,0.04,,,-99.99,,2013-04-15 10:02:00,
2013-04-15 04:13:00,16.0,15.0,-100.00,NE,47,1.0,2.0,95,0.06,,,-99.99,,2013-04-15 10:13:00,
2013-04-15 04:23:00,16.0,15.0,-100.00,ENE,69,4.0,7.0,95,0.04,,,-99.99,,2013-04-15 10:23:00,
2013-04-15 04:33:00,16.0,15.0,-100.00,NE,56,2.0,4.0,95,0.04,,,-99.99,,2013-04-15 10:33:00,
2013-04-15 04:42:00,17.0,15.0,-100.00,ENE,75,3.0,6.0,95,0.01,,,-99.99,,2013-04-15 10:42:00,
2013-04-15 04:52:00,17.0,15.0,-100.00,ESE,110,6.0,11.0,95,0.06,,,-99.99,,2013-04-15 10:52:00,
2013-04-15 05:03:00,16.0,15.0,-100.00,SE,143,13.0,18.0,95,0.01,,,-99.99,,2013-04-15 11:03:00,
2013-04-15 05:12:00,16.0,15.0,-100.00,SE,145,14.0,18.0,95,0.03,,,-99.99,,2013-04-15 11:12:00,
2013-04-15 05:22:00,15.0,14.0,-100.00,SE,134,13.0,17.0,95,0.03,,,-99.99,,2013-04-15 11:22:00,
2013-04-15 05:32:00,15.0,14.0,-100.00,SE,124,12.0,15.0,95,0.01,,,-99.99,,2013-04-15 11:32:00,
2013-04-15 05:44:00,-999.0,-99.9,-100.00,ESE,119,10.0,14.0,-999,-99.99,,,-99.99,,2013-04-15 11:44:00,
2013-04-15 05:53:00,15.0,14.0,-100.00,SE,128,12.0,17.0,95,0.01,,,-99.99,,2013-04-15 11:53:00,
2013-04-15 06:13:00,15.0,14.0,-100.00,SE,138,13.0,18.0,95,0.00,,,-99.99,,2013-04-15 12:13:00,
2013-04-15 06:23:00,15.0,14.0,-100.00,SE,134,14.0,17.0,95,0.04,,,-99.99,,2013-04-15 12:23:00,
2013-04-15 06:33:00,15.0,14.0,-100.00,SE,127,11.0,14.0,95,0.04,,,-99.99,,2013-04-15 12:33:00,
2013-04-15 06:43:00,15.0,14.0,-100.00,ESE,123,12.0,15.0,95,0.04,,,-99.99,,2013-04-15 12:43:00,
2013-04-15 06:52:00,15.0,14.0,-100.00,ESE,119,11.0,16.0,95,0.03,,,-99.99,,2013-04-15 12:52:00,
2013-04-15 07:03:00,15.0,13.0,-100.00,ESE,114,7.0,11.0,94,0.04,,,-99.99,,2013-04-15 13:03:00,
2013-04-15 07:12:00,14.0,13.0,-100.00,ESE,106,7.0,11.0,94,0.03,,,-99.99,,2013-04-15 13:12:00,
2013-04-15 07:23:00,14.0,13.0,-100.00,ESE,109,9.0,15.0,94,0.01,,,-99.99,,2013-04-15 13:23:00,
2013-04-15 07:33:00,14.0,12.0,-100.00,ESE,114,12.0,19.0,94,0.06,,,-99.99,,2013-04-15 13:33:00,
2013-04-15 07:42:00,13.0,12.0,-100.00,ESE,107,12.0,19.0,94,0.01,,,-99.99,,2013-04-15 13:42:00,
2013-04-15 07:53:00,13.0,11.0,-100.00,ESE,109,13.0,17.0,94,0.00,,,-99.99,,2013-04-15 13:53:00,
2013-04-15 08:04:00,13.0,11.0,-100.00,ESE,107,13.0,17.0,93,0.01,,,-99.99,,2013-04-15 14:04:00,
2013-04-15 08:12:00,13.0,11.0,-100.00,ESE,106,13.0,17.0,94,0.04,,,-99.99,,2013-04-15 14:12:00,
2013-04-15 08:22:00,13.0,11.0,-100.00,East,92,11.0,17.0,94,0.03,,,-99.99,,2013-04-15 14:22:00,
2013-04-15 08:33:00,13.0,11.0,-100.00,East,85,11.0,17.0,94,0.01,,,-99.99,,2013-04-15 14:33:00,
2013-04-15 08:44:00,13.0,11.0,-100.00,East,82,12.0,19.0,94,0.04,,,-99.99,,2013-04-15 14:44:00,
2013-04-15 09:13:00,13.0,12.0,-100.00,ESE,102,12.0,18.0,94,0.08,,,-99.99,,2013-04-15 15:13:00,
2013-04-15 09:23:00,13.0,11.0,-100.00,East,86,12.0,19.0,93,0.01,,,-99.99,,2013-04-15 15:23:00,
2013-04-15 09:34:00,13.0,11.0,-100.00,East,80,12.0,20.0,93,0.00,,,-99.99,,2013-04-15 15:34:00,
2013-04-15 09:43:00,13.0,11.0,-100.00,East,83,13.0,20.0,93,0.00,,,-99.99,,2013-04-15 15:43:00,
2013-04-15 09:53:00,13.0,12.0,-100.00,East,88,13.0,21.0,94,-99.99,,,-99.99,,2013-04-15 15:53:00,
2013-04-15 10:04:00,13.0,11.0,-100.00,East,85,12.0,19.0,93,0.04,,,-99.99,,2013-04-15 16:04:00,
2013-04-15 10:13:00,13.0,11.0,-100.00,East,85,13.0,20.0,94,0.10,,,-99.99,,2013-04-15 16:13:00,
2013-04-15 10:24:00,13.0,11.0,-100.00,East,85,13.0,23.0,92,0.01,,,-99.99,,2013-04-15 16:24:00,
2013-04-15 10:33:00,14.0,12.0,-100.00,East,79,12.0,22.0,94,0.01,,,-99.99,,2013-04-15 16:33:00,
2013-04-15 10:43:00,14.0,12.0,-100.00,East,85,13.0,21.0,93,0.00,,,-99.99,,2013-04-15 16:43:00,
2013-04-15 11:03:00,14.0,12.0,-100.00,East,88,14.0,22.0,93,0.03,,,-99.99,,2013-04-15 17:03:00,
2013-04-15 11:14:00,15.0,13.0,-100.00,East,90,14.0,22.0,93,0.00,,,-99.99,,2013-04-15 17:14:00,
2013-04-15 11:21:00,15.0,14.0,-100.00,East,99,13.0,19.0,93,0.01,,,-99.99,,2013-04-15 17:21:00,
2013-04-15 11:33:00,15.0,13.0,-100.00,East,97,14.0,20.0,93,0.01,,,-99.99,,2013-04-15 17:33:00,
2013-04-15 11:52:00,13.0,12.0,-100.00,East,93,13.0,22.0,92,0.03,,,-99.99,,2013-04-15 17:52:00,
2013-04-15 12:03:00,12.0,11.0,-100.00,East,83,14.0,24.0,93,0.01,,,-99.99,,2013-04-15 18:03:00,
2013-04-15 12:12:00,12.0,11.0,-100.00,East,80,13.0,21.0,92,0.03,,,-99.99,,2013-04-15 18:12:00,
2013-04-15 12:23:00,13.0,11.0,-100.00,East,80,14.0,24.0,93,0.06,,,-99.99,,2013-04-15 18:23:00,
2013-04-15 12:32:00,12.0,11.0,-100.00,East,82,13.0,20.0,93,0.07,,,-99.99,,2013-04-15 18:32:00,
2013-04-15 12:42:00,12.0,11.0,-100.00,East,82,12.0,21.0,93,0.07,,,-99.99,,2013-04-15 18:42:00,
2013-04-15 12:52:00,13.0,11.0,-100.00,East,85,14.0,20.0,94,0.07,,,-99.99,,2013-04-15 18:52:00,
2013-04-15 13:02:00,14.0,12.0,-100.00,East,89,12.0,19.0,93,0.07,,,-99.99,,2013-04-15 19:02:00,
2013-04-15 13:12:00,14.0,13.0,-100.00,East,93,12.0,16.0,94,0.01,,,-99.99,,2013-04-15 19:12:00,
2013-04-15 13:22:00,14.0,12.0,-100.00,East,79,12.0,21.0,93,0.01,,,-99.99,,2013-04-15 19:22:00,
2013-04-15 13:35:00,13.0,11.0,-100.00,ENE,71,11.0,22.0,93,0.01,,,-99.99,,2013-04-15 19:35:00,
2013-04-15 13:48:00,13.0,12.0,-100.00,East,80,12.0,22.0,94,0.01,,,-99.99,,2013-04-15 19:48:00,
2013-04-15 13:57:00,14.0,13.0,-100.00,East,97,12.0,17.0,94,0.00,,,-99.99,,2013-04-15 19:57:00,
2013-04-15 14:02:00,13.0,11.0,-100.00,East,95,12.0,18.0,92,0.03,,,-99.99,,2013-04-15 20:02:00,
2013-04-15 14:11:00,13.0,12.0,-100.00,East,89,12.0,21.0,93,0.00,,,-99.99,,2013-04-15 20:11:00,
2013-04-15 14:22:00,14.0,12.0,-100.00,ENE,71,9.0,16.0,92,0.00,,,-99.99,,2013-04-15 20:22:00,
2013-04-15 14:32:00,14.0,12.0,-100.00,East,83,10.0,17.0,92,0.00,,,-99.99,,2013-04-15 20:32:00,
2013-04-15 14:42:00,15.0,13.0,-100.00,East,95,9.0,17.0,94,0.00,,,-99.99,,2013-04-15 20:42:00,
2013-04-15 14:52:00,13.0,12.0,-100.00,East,92,11.0,16.0,92,0.00,,,-99.99,,2013-04-15 20:52:00,
2013-04-15 15:02:00,14.0,13.0,-100.00,East,93,10.0,16.0,93,0.01,,,-99.99,,2013-04-15 21:02:00,
2013-04-15 15:12:00,14.0,13.0,-100.00,East,97,9.0,14.0,92,0.01,,,-99.99,,2013-04-15 21:12:00,
2013-04-15 15:22:00,13.0,12.0,-100.00,East,86,9.0,16.0,93,0.01,,,-99.99,,2013-04-15 21:22:00,
2013-04-15 15:32:00,14.0,12.0,-100.00,East,83,9.0,16.0,93,0.00,,,-99.99,,2013-04-15 21:32:00,
2013-04-15 15:42:00,13.0,11.0,-100.00,East,80,9.0,17.0,93,0.00,,,-99.99,,2013-04-15 21:42:00,
2013-04-15 15:53:00,14.0,12.0,-100.00,ENE,78,9.0,16.0,93,0.00,,,-99.99,,2013-04-15 21:53:00,
2013-04-15 16:02:00,13.0,11.0,-100.00,ENE,72,7.0,14.0,92,0.00,,,-99.99,,2013-04-15 22:02:00,
2013-04-15 16:13:00,14.0,13.0,-100.00,East,80,7.0,13.0,93,0.00,,,-99.99,,2013-04-15 22:13:00,
2013-04-15 16:23:00,13.0,12.0,-100.00,ENE,78,9.0,14.0,94,0.08,,,-99.99,,2013-04-15 22:23:00,
2013-04-15 16:32:00,13.0,12.0,-100.00,East,82,9.0,15.0,93,0.07,,,-99.99,,2013-04-15 22:32:00,
2013-04-15 16:42:00,13.0,11.0,-100.00,East,82,10.0,16.0,93,0.01,,,-99.99,,2013-04-15 22:42:00,
2013-04-15 16:52:00,13.0,12.0,-100.00,East,90,9.0,12.0,93,0.01,,,-99.99,,2013-04-15 22:52:00,
2013-04-15 17:02:00,13.0,11.0,-100.00,ENE,75,7.0,11.0,93,0.04,,,-99.99,,2013-04-15 23:02:00,
2013-04-15 17:12:00,13.0,11.0,-100.00,ENE,71,7.0,14.0,94,0.03,,,-99.99,,2013-04-15 23:12:00,
2013-04-15 17:22:00,13.0,11.0,-100.00,East,80,9.0,13.0,93,0.01,,,-99.99,,2013-04-15 23:22:00,
2013-04-15 17:32:00,12.0,11.0,-100.00,ENE,68,6.0,11.0,93,0.00,,,-99.99,,2013-04-15 23:32:00,
2013-04-15 17:42:00,13.0,11.0,-100.00,East,80,8.0,14.0,92,0.00,,,-99.99,,2013-04-15 23:42:00,
2013-04-15 17:52:00,12.0,10.0,-100.00,East,80,11.0,16.0,93,0.00,,,-99.99,,2013-04-15 23:52:00,
2013-04-15 18:02:00,12.0,10.0,-100.00,East,80,9.0,15.0,93,0.00,,,-99.99,,2013-04-16 00:02:00,
2013-04-15 18:12:00,12.0,10.0,-100.00,ENE,73,7.0,13.0,93,0.00,,,-99.99,,2013-04-16 00:12:00,
2013-04-15 18:22:00,12.0,11.0,-100.00,ENE,78,7.0,14.0,93,0.00,,,-99.99,,2013-04-16 00:22:00,
2013-04-15 18:32:00,12.0,11.0,-100.00,East,83,9.0,14.0,93,0.00,,,-99.99,,2013-04-16 00:32:00,
2013-04-15 18:42:00,12.0,11.0,-100.00,East,89,7.0,12.0,93,0.00,,,-99.99,,2013-04-16 00:42:00,
2013-04-15 18:52:00,12.0,11.0,-100.00,ENE,72,6.0,9.0,93,0.00,,,-99.99,,2013-04-16 00:52:00,
2013-04-15 19:02:00,12.0,11.0,-100.00,East,79,6.0,10.0,94,0.00,,,-99.99,,2013-04-16 01:02:00,
2013-04-15 19:12:00,12.0,11.0,-100.00,East,89,7.0,11.0,93,0.00,,,-99.99,,2013-04-16 01:12:00,
2013-04-15 19:22:00,12.0,10.0,-100.00,East,85,9.0,12.0,93,0.00,,,-99.99,,2013-04-16 01:22:00,
2013-04-15 19:32:00,11.0,10.0,-100.00,ENE,75,6.0,12.0,93,0.00,,,-99.99,,2013-04-16 01:32:00,
2013-04-15 19:42:00,11.0,10.0,-100.00,ENE,69,7.0,14.0,94,0.00,,,-99.99,,2013-04-16 01:42:00,
2013-04-15 19:52:00,11.0,10.0,-100.00,ENE,68,6.0,9.0,93,0.00,,,-99.99,,2013-04-16 01:52:00,
2013-04-15 20:02:00,12.0,10.0,-100.00,NE,54,4.0,7.0,93,0.00,,,-99.99,,2013-04-16 02:02:00,
2013-04-15 20:12:00,12.0,10.0,-100.00,NE,51,4.0,6.0,93,0.00,,,-99.99,,2013-04-16 02:12:00,
2013-04-15 20:22:00,12.0,10.0,-100.00,NE,55,5.0,7.0,93,0.00,,,-99.99,,2013-04-16 02:22:00,
2013-04-15 20:32:00,12.0,10.0,-100.00,NE,55,4.0,7.0,93,0.00,,,-99.99,,2013-04-16 02:32:00,
2013-04-15 20:42:00,12.0,11.0,-100.00,NE,49,3.0,5.0,94,0.00,,,-99.99,,2013-04-16 02:42:00,
2013-04-15 20:52:00,12.0,11.0,-100.00,ENE,62,4.0,6.0,94,0.00,,,-99.99,,2013-04-16 02:52:00,
2013-04-15 21:02:00,12.0,11.0,-100.00,ENE,75,4.0,7.0,93,0.00,,,-99.99,,2013-04-16 03:02:00,
2013-04-15 21:12:00,12.0,11.0,-100.00,ENE,78,4.0,9.0,94,0.00,,,-99.99,,2013-04-16 03:12:00,
2013-04-15 21:22:00,12.0,10.0,-100.00,ENE,75,6.0,12.0,93,0.00,,,-99.99,,2013-04-16 03:22:00,
2013-04-15 21:33:00,12.0,10.0,-100.00,ENE,76,9.0,17.0,93,0.00,,,-99.99,,2013-04-16 03:33:00,
2013-04-15 21:43:00,12.0,10.0,-100.00,ENE,66,7.0,14.0,94,0.00,,,-99.99,,2013-04-16 03:43:00,
2013-04-15 21:52:00,12.0,10.0,-100.00,ENE,65,6.0,9.0,93,0.00,,,-99.99,,2013-04-16 03:52:00,
2013-04-15 22:03:00,12.0,10.0,-100.00,ENE,73,7.0,15.0,93,0.00,,,-99.99,,2013-04-16 04:03:00,
2013-04-15 22:12:00,12.0,10.0,-100.00,ENE,71,6.0,12.0,93,0.00,,,-99.99,,2013-04-16 04:12:00,
2013-04-15 22:23:00,12.0,10.0,-100.00,ENE,62,6.0,11.0,93,0.00,,,-99.99,,2013-04-16 04:23:00,
2013-04-15 22:33:00,12.0,10.0,-100.00,ENE,69,6.0,11.0,93,0.00,,,-99.99,,2013-04-16 04:33:00,
2013-04-15 22:42:00,12.0,10.0,-100.00,ENE,72,6.0,12.0,93,0.00,,,-99.99,,2013-04-16 04:42:00,
2013-04-15 22:52:00,12.0,10.0,-100.00,East,80,9.0,15.0,93,0.00,,,-99.99,,2013-04-16 04:52:00,
2013-04-15 23:02:00,11.0,10.0,-100.00,East,86,9.0,16.0,93,0.00,,,-99.99,,2013-04-16 05:02:00,
2013-04-15 23:12:00,11.0,10.0,-100.00,East,79,7.0,14.0,93,0.00,,,-99.99,,2013-04-16 05:12:00,
2013-04-15 23:22:00,11.0,10.0,-100.00,East,79,9.0,17.0,93,0.00,,,-99.99,,2013-04-16 05:22:00,
2013-04-15 23:32:00,11.0,9.0,-100.00,ENE,71,8.0,16.0,93,0.00,,,-99.99,,2013-04-16 05:32:00,
2013-04-15 23:42:00,11.0,9.0,-100.00,ENE,65,6.0,10.0,93,0.00,,,-99.99,,2013-04-16 05:42:00,
2013-04-15 23:52:00,11.0,9.0,-100.00,ENE,72,6.0,12.0,93,0.00,,,-99.99,,2013-04-16 05:52:00,